Welkom op de website van Weerstation Hoek van Holland.
Het weer levert geen direct gevaar op.    Er zijn geen waarschuwingen afgegeven.

Onweer radar Meer informatie blitzortung!


Regen radar Meer informatie rain snow radar



METAR rapporten vliegvelden

   
EHRD - Rotterdam International Airport, NL
Afstand tot: Oost 31 km
Gewijzigd: 11-12-2018 23:55
Bewolking  
Bewolking  
   Wind: varieert 1.9 km/h
Wind: varieert 1.9 km/h
Temperatuur: 2°C
Dauwpunt: 2°C
Vochtigheid: 100%
Barometer: 1025 hPa
Bewolking: Overcast
Zicht: meer dan 10 km
Bewolking: Bewolking 4800 ft
EHRD 112255Z AUTO VRB01KT 9999 OVC048 02/02 Q1025 NOSIG
EHAM - Amsterdam Schiphol, NL
Afstand tot: Noord 17 km
Gewijzigd: 11-12-2018 23:55
Grotendeels bewolkt  
Grotendeels bewolkt  
   Wind: NW 3.7 km/h
Wind: NW 3.7 km/h
Temperatuur: 1°C
Dauwpunt: 1°C
Vochtigheid: 100%
Barometer: 1025 hPa
Bewolking: Mostly Cloudy
Zicht: meer dan 10 km
Bewolking: Grotendeels bewolkt 4600 ft
EHAM 112255Z 32002KT 9999 BKN046 01/01 Q1025 NOSIG
EBAW - Antwerpen/Deurne, B
Afstand tot: Zuid 138 km
Gewijzigd: 11-12-2018 23:50
Helder  
Helder  
   Wind: varieert 1.9 km/h
Wind: varieert 1.9 km/h
Temperatuur: 3°C
Dauwpunt: 2°C
Vochtigheid: 93%
Barometer: 1025 hPa
Zicht: meer dan 10 km
Bewolking: Helder ft
EBAW 112250Z AUTO VRB01KT CAVOK 03/02 Q1025
EHEH - Eindhoven, NL
Afstand tot: OZO 140 km
Gewijzigd: 11-12-2018 23:55
Mist, Licht bewolkt  
Mist, Licht bewolkt  
   Wind: Kalm
Wind: Kalm
Temperatuur: 1°C
Dauwpunt: 0°C
Vochtigheid: 93%
Barometer: 1025 hPa
Bewolking: Few Clouds
Zicht: 1 km
Bewolking: Licht bewolkt 0 ft
EHEH 112255Z AUTO 00000KT 0450 FG FEW000 01/00 Q1025 RED
  

Script ontwikkeld door  Saratoga-weather.org Aangepast voor de template door  Weerstation Leuven

Apparatuur in gebruik:

Weerstation
Davis VP2

Weerprogramma
Meteobridge

Weercomputer
meteobridge met meteostick

Webleverancier
Strato

Davis VP2

Meteobridge

meteobridge met meteostick

Strato